createdAt,value
2018-01-24T00:00:42.714Z,6.13
2018-01-24T00:01:52.657Z,6.19
2018-01-24T00:03:02.347Z,6.15
2018-01-24T00:04:12.298Z,6.13
2018-01-24T00:05:22.000Z,6.19
2018-01-24T00:06:31.432Z,6.19
2018-01-24T00:07:41.372Z,6.15
2018-01-24T00:08:51.331Z,6.12
2018-01-24T00:10:01.282Z,6.15
2018-01-24T00:11:10.964Z,6.15
2018-01-24T00:12:20.653Z,6.15
2018-01-24T00:13:30.600Z,6.12
2018-01-24T00:14:40.610Z,6.15
2018-01-24T00:15:50.555Z,6.12
2018-01-24T00:17:00.536Z,6.12
2018-01-24T00:18:10.473Z,6.15
2018-01-24T00:19:20.414Z,6.01
2018-01-24T00:20:30.360Z,5.95
2018-01-24T00:21:40.298Z,5.94
2018-01-24T00:22:49.988Z,5.84
2018-01-24T00:23:59.678Z,5.74
2018-01-24T00:25:09.382Z,5.79
2018-01-24T00:26:19.330Z,5.69
2018-01-24T00:27:29.271Z,5.65
2018-01-24T00:28:39.238Z,5.65
2018-01-24T00:29:48.934Z,5.55
2018-01-24T00:30:58.672Z,5.54
2018-01-24T00:32:08.365Z,5.52
2018-01-24T00:33:18.329Z,5.49
2018-01-24T00:34:28.279Z,5.49
2018-01-24T00:35:37.707Z,5.47
2018-01-24T00:36:47.400Z,5.41
2018-01-24T00:37:57.405Z,5.49
2018-01-24T00:39:07.360Z,5.43
2018-01-24T00:40:16.790Z,5.44
2018-01-24T00:41:26.724Z,5.37
2018-01-24T00:42:36.671Z,5.38
2018-01-24T00:43:46.352Z,5.36
2018-01-24T00:44:56.290Z,5.36
2018-01-24T00:46:06.232Z,5.36
2018-01-24T00:47:16.171Z,5.33
2018-01-24T00:48:25.865Z,5.33
2018-01-24T00:49:35.830Z,5.36
2018-01-24T00:50:45.829Z,5.34
2018-01-24T00:51:55.769Z,5.31
2018-01-24T00:53:05.716Z,5.34
2018-01-24T00:54:15.682Z,5.31
2018-01-24T00:55:25.370Z,5.34
2018-01-24T00:56:35.320Z,5.29
2018-01-24T00:57:45.013Z,5.34
2018-01-24T00:58:55.002Z,5.31
2018-01-24T01:00:04.948Z,5.34
2018-01-24T01:01:14.892Z,5.36
2018-01-24T01:02:24.839Z,5.34
2018-01-24T01:03:34.784Z,5.34
2018-01-24T01:04:44.473Z,5.34
2018-01-24T01:05:54.422Z,5.29
2018-01-24T01:07:04.116Z,5.34
2018-01-24T01:08:13.802Z,5.34
2018-01-24T01:09:23.490Z,5.38
2018-01-24T01:10:33.424Z,5.36
2018-01-24T01:11:43.376Z,5.34
2018-01-24T01:12:53.067Z,5.31
2018-01-24T01:14:03.028Z,5.36
2018-01-24T01:15:12.720Z,5.33
2018-01-24T01:16:22.401Z,5.37
2018-01-24T01:17:32.086Z,5.36
2018-01-24T01:18:42.025Z,5.38
2018-01-24T01:19:51.707Z,5.34
2018-01-24T01:21:01.646Z,5.34
2018-01-24T01:22:11.587Z,5.38
2018-01-24T01:23:21.553Z,5.4
2018-01-24T01:24:31.497Z,5.38
2018-01-24T01:25:41.447Z,5.41
2018-01-24T01:26:51.130Z,5.49
2018-01-24T01:28:01.086Z,5.44
2018-01-24T01:29:10.506Z,5.41
2018-01-24T01:30:20.448Z,5.44
2018-01-24T01:31:30.412Z,5.43
2018-01-24T01:32:40.350Z,5.43
2018-01-24T01:33:50.288Z,5.49
2018-01-24T01:35:00.228Z,5.51
2018-01-24T01:36:10.182Z,5.44
2018-01-24T01:37:20.133Z,5.51
2018-01-24T01:38:30.082Z,5.49
2018-01-24T01:39:40.082Z,5.4
2018-01-24T01:40:49.769Z,5.44
2018-01-24T01:41:59.746Z,5.43
2018-01-24T01:43:09.174Z,5.43
2018-01-24T01:44:18.872Z,5.41
2018-01-24T01:45:28.298Z,5.47
2018-01-24T01:46:38.490Z,5.43
2018-01-24T01:47:48.481Z,5.43
2018-01-24T01:48:58.524Z,5.46
2018-01-24T01:50:08.470Z,5.4
2018-01-24T01:51:18.424Z,5.4
2018-01-24T01:52:28.366Z,5.44
2018-01-24T01:53:38.321Z,5.44
2018-01-24T01:54:48.297Z,5.49
2018-01-24T01:55:58.242Z,5.49
2018-01-24T01:57:08.180Z,5.49
2018-01-24T01:58:18.123Z,5.44
2018-01-24T01:59:28.057Z,5.41
2018-01-24T02:00:37.748Z,5.54
2018-01-24T02:01:47.439Z,5.52
2018-01-24T02:02:57.405Z,5.38
2018-01-24T02:04:07.346Z,5.44
2018-01-24T02:05:17.288Z,5.56
2018-01-24T02:06:26.998Z,5.52
2018-01-24T02:07:36.937Z,5.55
2018-01-24T02:08:46.870Z,5.55
2018-01-24T02:09:56.829Z,5.56
2018-01-24T02:11:06.792Z,5.58
2018-01-24T02:12:16.735Z,5.58
2018-01-24T02:13:26.673Z,5.62
2018-01-24T02:14:36.367Z,5.58
2018-01-24T02:15:46.307Z,5.61
2018-01-24T02:16:56.261Z,5.59
2018-01-24T02:18:06.215Z,5.62
2018-01-24T02:19:15.643Z,5.58
2018-01-24T02:20:25.581Z,5.64
2018-01-24T02:21:35.255Z,5.69
2018-01-24T02:22:44.948Z,5.59
2018-01-24T02:23:54.899Z,5.58
2018-01-24T02:25:04.606Z,5.65
2018-01-24T02:26:14.299Z,5.65
2018-01-24T02:27:24.245Z,5.59
2018-01-24T02:28:34.192Z,5.73
2018-01-24T02:29:44.136Z,5.61
2018-01-24T02:30:54.079Z,5.69
2018-01-24T02:32:04.024Z,5.67
2018-01-24T02:33:13.710Z,5.72
2018-01-24T02:34:23.673Z,5.67
2018-01-24T02:35:33.634Z,5.74
2018-01-24T02:36:43.064Z,5.65
2018-01-24T02:37:52.790Z,5.67
2018-01-24T02:39:02.740Z,5.67
2018-01-24T02:40:12.695Z,5.69
2018-01-24T02:41:22.692Z,5.72
2018-01-24T02:42:32.392Z,5.69
2018-01-24T02:43:42.083Z,5.64
2018-01-24T02:44:52.033Z,5.7
2018-01-24T02:46:01.999Z,5.7
2018-01-24T02:47:11.967Z,5.65
2018-01-24T02:48:21.704Z,5.76
2018-01-24T02:49:31.645Z,5.69
2018-01-24T02:50:41.330Z,5.69
2018-01-24T02:51:51.276Z,5.62
2018-01-24T02:53:01.224Z,5.67
2018-01-24T02:54:10.915Z,5.67
2018-01-24T02:55:20.890Z,5.74
2018-01-24T02:56:30.590Z,5.79
2018-01-24T02:57:40.536Z,5.77
2018-01-24T02:58:49.716Z,5.73
2018-01-24T02:59:59.413Z,5.76
2018-01-24T03:01:09.407Z,5.74
2018-01-24T03:02:18.843Z,5.7
2018-01-24T03:03:28.781Z,5.79
2018-01-24T03:04:38.730Z,5.87
2018-01-24T03:05:48.420Z,5.84
2018-01-24T03:06:58.420Z,5.84
2018-01-24T03:08:08.105Z,5.8
2018-01-24T03:09:18.064Z,5.9
2018-01-24T03:10:28.255Z,5.83
2018-01-24T03:11:37.941Z,5.84
2018-01-24T03:12:47.628Z,5.84
2018-01-24T03:13:57.315Z,5.94
2018-01-24T03:15:07.262Z,5.95
2018-01-24T03:16:16.696Z,5.91
2018-01-24T03:17:26.640Z,5.98
2018-01-24T03:18:36.588Z,5.95
2018-01-24T03:19:46.271Z,5.94
2018-01-24T03:20:56.454Z,5.97
2018-01-24T03:22:05.884Z,5.92
2018-01-24T03:23:15.825Z,5.92
2018-01-24T03:24:25.317Z,5.99
2018-01-24T03:25:35.263Z,5.98
2018-01-24T03:26:44.952Z,5.98
2018-01-24T03:27:54.633Z,5.98
2018-01-24T03:29:04.330Z,6.12
2018-01-24T03:30:14.298Z,6.12
2018-01-24T03:31:24.246Z,6.06
2018-01-24T03:32:34.197Z,6.12
2018-01-24T03:33:44.146Z,6.1
2018-01-24T03:34:54.091Z,6.07
2018-01-24T03:36:04.040Z,6.12
2018-01-24T03:37:13.984Z,6.09
2018-01-24T03:38:23.414Z,6.15
2018-01-24T03:39:33.356Z,6.1
2018-01-24T03:40:43.299Z,6.17
2018-01-24T03:41:53.252Z,6.16
2018-01-24T03:43:03.210Z,6.15
2018-01-24T03:44:13.186Z,6.19
2018-01-24T03:45:22.872Z,6.22
2018-01-24T03:46:32.561Z,6.19
2018-01-24T03:47:42.494Z,6.22
2018-01-24T03:48:52.444Z,6.26
2018-01-24T03:50:02.137Z,6.28
2018-01-24T03:51:12.091Z,6.31
2018-01-24T03:52:22.039Z,6.29
2018-01-24T03:53:31.985Z,6.25
2018-01-24T03:54:41.923Z,6.28
2018-01-24T03:55:51.595Z,6.28
2018-01-24T03:57:01.535Z,6.32
2018-01-24T03:58:11.527Z,6.43
2018-01-24T03:59:21.213Z,6.38
2018-01-24T04:00:30.908Z,6.35
2018-01-24T04:01:40.851Z,6.38
2018-01-24T04:02:50.852Z,6.43
2018-01-24T04:04:00.792Z,6.39
2018-01-24T04:05:10.481Z,6.38
2018-01-24T04:06:20.593Z,6.35
2018-01-24T04:07:30.284Z,6.41
2018-01-24T04:08:39.710Z,6.41
2018-01-24T04:09:49.389Z,6.41
2018-01-24T04:10:59.321Z,6.53
2018-01-24T04:12:09.002Z,6.39
2018-01-24T04:13:18.954Z,6.54
2018-01-24T04:14:28.638Z,6.5
2018-01-24T04:15:38.586Z,6.53
2018-01-24T04:16:48.530Z,6.52
2018-01-24T04:17:58.215Z,6.57
2018-01-24T04:19:08.155Z,6.52
2018-01-24T04:20:18.099Z,6.52
2018-01-24T04:21:28.042Z,6.62
2018-01-24T04:22:37.975Z,6.59
2018-01-24T04:23:47.686Z,6.62
2018-01-24T04:24:57.641Z,6.53
2018-01-24T04:26:07.601Z,6.52
2018-01-24T04:27:17.544Z,6.57
2018-01-24T04:28:27.231Z,6.62
2018-01-24T04:29:36.911Z,6.65
2018-01-24T04:30:46.918Z,6.6
2018-01-24T04:31:56.608Z,6.64
2018-01-24T04:33:06.552Z,6.6
2018-01-24T04:34:16.497Z,6.62
2018-01-24T04:35:26.185Z,6.6
2018-01-24T04:36:35.897Z,6.7
2018-01-24T04:37:45.889Z,6.67
2018-01-24T04:38:55.836Z,6.71
2018-01-24T04:40:05.533Z,6.64
2018-01-24T04:41:15.226Z,6.74
2018-01-24T04:42:25.169Z,6.67
2018-01-24T04:43:35.113Z,6.72
2018-01-24T04:44:45.057Z,6.82
2018-01-24T04:45:55.254Z,6.77
2018-01-24T04:47:05.205Z,6.86
2018-01-24T04:48:15.152Z,6.85
2018-01-24T04:49:25.114Z,6.85
2018-01-24T04:50:34.810Z,6.87
2018-01-24T04:51:44.991Z,6.86
2018-01-24T04:52:54.949Z,6.93
2018-01-24T04:54:04.642Z,6.86
2018-01-24T04:55:14.589Z,6.83
2018-01-24T04:56:24.282Z,6.89
2018-01-24T04:57:34.250Z,6.83
2018-01-24T04:58:43.938Z,6.87
2018-01-24T04:59:53.882Z,6.82
2018-01-24T05:01:03.822Z,6.87
2018-01-24T05:02:13.776Z,6.95
2018-01-24T05:03:23.728Z,6.89
2018-01-24T05:04:33.675Z,6.92
2018-01-24T05:05:43.614Z,6.93
2018-01-24T05:06:53.552Z,6.95
2018-01-24T05:08:03.487Z,6.9
2018-01-24T05:09:13.168Z,6.93
2018-01-24T05:10:23.123Z,6.96
2018-01-24T05:11:33.063Z,7.01
2018-01-24T05:12:43.009Z,6.95
2018-01-24T05:13:52.719Z,6.97
2018-01-24T05:15:02.154Z,7.04
2018-01-24T05:16:12.112Z,7.01
2018-01-24T05:17:22.055Z,7.01
2018-01-24T05:18:31.740Z,7.05
2018-01-24T05:19:41.674Z,7.01
2018-01-24T05:20:51.408Z,7.04
2018-01-24T05:22:01.096Z,7.04
2018-01-24T05:23:11.037Z,7.13
2018-01-24T05:24:20.988Z,7.1
2018-01-24T05:25:30.709Z,7.11
2018-01-24T05:26:40.660Z,7.19
2018-01-24T05:27:50.639Z,7.14
2018-01-24T05:29:00.579Z,7.19
2018-01-24T05:30:10.262Z,7.21
2018-01-24T05:31:20.217Z,7.19
2018-01-24T05:32:29.962Z,7.25
2018-01-24T05:33:39.644Z,7.26
2018-01-24T05:34:49.336Z,7.22
2018-01-24T05:35:59.268Z,7.23
2018-01-24T05:37:08.971Z,7.19
2018-01-24T05:38:18.670Z,7.14
2018-01-24T05:39:28.368Z,7.14
2018-01-24T05:40:38.318Z,7.13
2018-01-24T05:41:47.998Z,6.97
2018-01-24T05:42:57.950Z,7.03
2018-01-24T05:44:07.885Z,7
2018-01-24T05:45:17.819Z,6.95
2018-01-24T05:46:27.774Z,6.97
2018-01-24T05:47:37.202Z,6.96
2018-01-24T05:48:47.155Z,7.04
2018-01-24T05:49:57.100Z,7.01
2018-01-24T05:51:07.051Z,6.97
2018-01-24T05:52:16.477Z,6.97
2018-01-24T05:53:25.936Z,6.95
2018-01-24T05:54:35.613Z,6.96
2018-01-24T05:55:45.619Z,6.9
2018-01-24T05:56:55.555Z,6.92
2018-01-24T05:58:05.241Z,6.9
2018-01-24T05:59:14.925Z,6.96
2018-01-24T06:00:24.620Z,6.89
2018-01-24T06:01:34.813Z,6.89
2018-01-24T06:02:44.754Z,6.82
2018-01-24T06:03:54.705Z,6.93
2018-01-24T06:05:04.654Z,6.9
2018-01-24T06:06:14.591Z,6.86
2018-01-24T06:07:24.554Z,6.8
2018-01-24T06:08:34.242Z,6.86
2018-01-24T06:09:44.176Z,6.85
2018-01-24T06:10:53.877Z,6.87
2018-01-24T06:12:03.814Z,6.89
2018-01-24T06:13:13.747Z,6.92
2018-01-24T06:14:23.690Z,6.85
2018-01-24T06:15:33.653Z,6.9
2018-01-24T06:16:43.687Z,6.9
2018-01-24T06:17:53.639Z,6.89
2018-01-24T06:19:03.571Z,6.89
2018-01-24T06:20:13.539Z,6.83
2018-01-24T06:21:23.512Z,6.89
2018-01-24T06:22:33.446Z,6.89
2018-01-24T06:23:43.401Z,6.93
2018-01-24T06:24:53.344Z,6.86
2018-01-24T06:26:03.299Z,6.87
2018-01-24T06:27:13.295Z,6.87
2018-01-24T06:28:22.978Z,6.9
2018-01-24T06:29:32.928Z,6.9
2018-01-24T06:30:42.637Z,6.8
2018-01-24T06:31:52.599Z,6.82
2018-01-24T06:33:02.554Z,6.85
2018-01-24T06:34:12.002Z,6.89
2018-01-24T06:35:21.688Z,6.92
2018-01-24T06:36:31.652Z,6.83
2018-01-24T06:37:41.344Z,6.87
2018-01-24T06:38:51.328Z,6.86
2018-01-24T06:40:01.272Z,6.9
2018-01-24T06:41:11.233Z,6.83
2018-01-24T06:42:21.170Z,6.92
2018-01-24T06:43:31.137Z,6.89
2018-01-24T06:44:41.081Z,6.9
2018-01-24T06:45:51.018Z,6.86
2018-01-24T06:47:00.706Z,6.9
2018-01-24T06:48:10.409Z,6.87
2018-01-24T06:49:20.367Z,6.87
2018-01-24T06:50:30.440Z,6.9
2018-01-24T06:51:40.432Z,6.85
2018-01-24T06:52:50.430Z,6.83
2018-01-24T06:53:59.881Z,6.86
2018-01-24T06:55:09.864Z,6.86
2018-01-24T06:56:19.812Z,6.92
2018-01-24T06:57:29.785Z,6.95
2018-01-24T06:58:39.737Z,6.97
2018-01-24T06:59:49.678Z,6.89
2018-01-24T07:00:59.637Z,6.9
2018-01-24T07:02:09.332Z,6.9
2018-01-24T07:03:19.282Z,6.92
2018-01-24T07:04:28.719Z,6.95
2018-01-24T07:05:38.689Z,6.92
2018-01-24T07:06:48.646Z,6.97
2018-01-24T07:07:58.715Z,6.93
2018-01-24T07:09:08.891Z,6.97
2018-01-24T07:10:18.618Z,7.07
2018-01-24T07:11:28.586Z,7.01
2018-01-24T07:12:38.288Z,7.04
2018-01-24T07:13:48.276Z,7.05
2018-01-24T07:14:57.988Z,7.07
2018-01-24T07:16:07.968Z,7.05
2018-01-24T07:17:17.926Z,7
2018-01-24T07:18:27.877Z,7.08
2018-01-24T07:19:37.859Z,7.14
2018-01-24T07:20:47.829Z,7.15
2018-01-24T07:21:57.283Z,7.13
2018-01-24T07:23:07.007Z,7.14
2018-01-24T07:24:16.977Z,7.18
2018-01-24T07:25:26.706Z,7.11
2018-01-24T07:26:36.398Z,7.19
2018-01-24T07:27:46.368Z,7.18
2018-01-24T07:28:56.556Z,7.15
2018-01-24T07:30:06.545Z,7.31
2018-01-24T07:31:16.500Z,7.37
2018-01-24T07:32:26.186Z,7.29
2018-01-24T07:33:35.648Z,7.28
2018-01-24T07:34:45.619Z,7.36
2018-01-24T07:35:55.592Z,7.26
2018-01-24T07:37:05.283Z,7.37
2018-01-24T07:38:14.984Z,7.31
2018-01-24T07:39:24.685Z,7.33
2018-01-24T07:40:34.639Z,7.39
2018-01-24T07:41:44.329Z,7.37
2018-01-24T07:42:54.287Z,7.41
2018-01-24T07:44:04.314Z,7.36
2018-01-24T07:45:14.272Z,7.4
2018-01-24T07:46:23.961Z,7.51
2018-01-24T07:47:33.944Z,7.51
2018-01-24T07:48:43.639Z,7.48
2018-01-24T07:49:53.598Z,7.56
2018-01-24T07:51:03.583Z,7.51
2018-01-24T07:52:13.531Z,7.53
2018-01-24T07:53:23.533Z,7.55
2018-01-24T07:54:33.240Z,7.58
2018-01-24T07:55:43.195Z,7.5
2018-01-24T07:56:52.912Z,7.59
2018-01-24T07:58:02.358Z,7.69
2018-01-24T07:59:12.305Z,7.77
2018-01-24T08:00:22.004Z,7.74
2018-01-24T08:01:31.948Z,7.75
2018-01-24T08:02:41.907Z,7.81
2018-01-24T08:03:51.606Z,7.78
2018-01-24T08:05:01.555Z,7.72
2018-01-24T08:06:11.507Z,7.74
2018-01-24T08:07:21.225Z,7.78
2018-01-24T08:08:31.191Z,7.85
2018-01-24T08:09:40.885Z,7.84
2018-01-24T08:10:50.330Z,7.88
2018-01-24T08:12:00.290Z,7.84
2018-01-24T08:13:09.986Z,7.85
2018-01-24T08:14:19.928Z,7.88
2018-01-24T08:15:29.633Z,7.95
2018-01-24T08:16:39.889Z,8.01
2018-01-24T08:17:50.096Z,8.01
2018-01-24T08:18:59.802Z,8.02
2018-01-24T08:20:09.771Z,8.03
2018-01-24T08:21:19.724Z,8.11
2018-01-24T08:22:29.682Z,8.11
2018-01-24T08:23:39.405Z,8.17
2018-01-24T08:24:49.357Z,8.17
2018-01-24T08:25:59.308Z,8.17
2018-01-24T08:27:09.269Z,8.34
2018-01-24T08:28:19.259Z,8.31
2018-01-24T08:29:29.239Z,8.28
2018-01-24T08:30:39.231Z,8.34
2018-01-24T08:31:49.207Z,8.34
2018-01-24T08:32:58.907Z,8.39
2018-01-24T08:34:08.624Z,8.36
2018-01-24T08:35:18.584Z,8.41
2018-01-24T08:36:28.556Z,8.45
2018-01-24T08:37:38.520Z,8.44
2018-01-24T08:38:48.212Z,8.52
2018-01-24T08:39:58.481Z,8.63
2018-01-24T08:41:08.451Z,8.69
2018-01-24T08:42:18.430Z,8.74
2018-01-24T08:43:28.446Z,8.79
2018-01-24T08:44:44.776Z,8.77
2018-01-24T08:45:54.730Z,8.84
2018-01-24T08:47:04.687Z,8.9
2018-01-24T08:48:14.395Z,8.99
2018-01-24T08:49:24.346Z,8.92
2018-01-24T08:50:33.781Z,8.92
2018-01-24T08:51:43.976Z,9
2018-01-24T08:52:53.677Z,9.05
2018-01-24T08:54:03.371Z,9.18
2018-01-24T08:55:13.328Z,9.22
2018-01-24T08:56:23.279Z,9.27
2018-01-24T08:57:33.249Z,9.27
2018-01-24T08:58:43.203Z,9.22
2018-01-24T08:59:52.898Z,9.29
2018-01-24T09:01:02.847Z,9.51
2018-01-24T09:02:12.543Z,9.48
2018-01-24T09:03:22.267Z,9.59
2018-01-24T09:04:32.221Z,9.56
2018-01-24T09:05:42.183Z,9.62
2018-01-24T09:06:51.872Z,9.69
2018-01-24T09:08:01.843Z,9.8
2018-01-24T09:09:11.542Z,9.88
2018-01-24T09:10:21.286Z,9.91
2018-01-24T09:11:31.237Z,10.05
2018-01-24T09:12:41.214Z,10.06
2018-01-24T09:13:51.172Z,10.06
2018-01-24T09:15:01.138Z,10.1
2018-01-24T09:16:11.123Z,10.06
2018-01-24T09:17:21.092Z,10.24
2018-01-24T09:18:30.887Z,10.36
2018-01-24T09:19:40.862Z,10.34
2018-01-24T09:20:50.556Z,10.39
2018-01-24T09:22:00.277Z,10.42
2018-01-24T09:23:10.249Z,10.67
2018-01-24T09:24:20.230Z,10.69
2018-01-24T09:25:29.933Z,10.77
2018-01-24T09:26:39.940Z,10.77
2018-01-24T09:27:49.895Z,10.9
2018-01-24T09:28:59.876Z,10.89
2018-01-24T09:30:09.603Z,10.86
2018-01-24T09:31:19.544Z,10.8
2018-01-24T09:32:29.512Z,10.67
2018-01-24T09:33:39.463Z,10.53
2018-01-24T09:34:48.935Z,10.57
2018-01-24T09:35:58.897Z,10.57
2018-01-24T09:37:08.611Z,10.65
2018-01-24T09:38:18.586Z,10.57
2018-01-24T09:39:28.568Z,10.62
2018-01-24T09:40:38.553Z,10.61
2018-01-24T09:41:48.533Z,10.53
2018-01-24T09:42:58.509Z,10.59
2018-01-24T09:44:08.473Z,10.49
2018-01-24T09:45:18.194Z,10.68
2018-01-24T09:46:27.954Z,10.71
2018-01-24T09:47:37.908Z,10.84
2018-01-24T09:48:47.862Z,11.01
2018-01-24T09:49:57.824Z,11.08
2018-01-24T09:51:07.519Z,11.19
2018-01-24T09:52:17.231Z,11.15
2018-01-24T09:53:26.968Z,11.22
2018-01-24T09:54:36.938Z,11.27
2018-01-24T09:55:46.892Z,11.25
2018-01-24T09:56:56.594Z,11.45
2018-01-24T09:58:06.301Z,11.45
2018-01-24T09:59:16.271Z,11.6
2018-01-24T10:00:26.231Z,11.53
2018-01-24T10:01:36.204Z,11.43
2018-01-24T10:02:46.175Z,11.48
2018-01-24T10:03:56.161Z,11.22
2018-01-24T10:05:05.861Z,11.2
2018-01-24T10:06:15.565Z,11.26
2018-01-24T10:07:25.017Z,11.22
2018-01-24T10:08:35.000Z,11.19
2018-01-24T10:09:44.723Z,11.19
2018-01-24T10:10:54.187Z,11.16
2018-01-24T10:12:03.911Z,11.16
2018-01-24T10:13:13.913Z,11.1
2018-01-24T10:14:23.650Z,11.22
2018-01-24T10:15:33.364Z,11.27
2018-01-24T10:16:43.349Z,11.44
2018-01-24T10:17:53.323Z,11.48
2018-01-24T10:19:03.289Z,11.62
2018-01-24T10:20:12.996Z,11.6
2018-01-24T10:21:22.962Z,11.7
2018-01-24T10:22:32.665Z,11.73
2018-01-24T10:23:42.622Z,11.77
2018-01-24T10:24:52.577Z,11.85
2018-01-24T10:26:02.278Z,11.93
2018-01-24T10:27:12.233Z,11.76
2018-01-24T10:28:22.192Z,11.91
2018-01-24T10:29:32.176Z,11.97
2018-01-24T10:30:41.910Z,12.1
2018-01-24T10:31:51.872Z,12.29
2018-01-24T10:33:01.589Z,12.57
2018-01-24T10:34:11.299Z,12.68
2018-01-24T10:35:21.262Z,12.8
2018-01-24T10:36:31.250Z,12.91
2018-01-24T10:37:40.757Z,12.75
2018-01-24T10:38:50.457Z,12.75
2018-01-24T10:40:00.419Z,12.84
2018-01-24T10:41:10.136Z,12.8
2018-01-24T10:42:20.160Z,12.83
2018-01-24T10:43:30.144Z,12.86
2018-01-24T10:44:39.849Z,12.93
2018-01-24T10:45:49.298Z,12.9
2018-01-24T10:46:59.248Z,12.91
2018-01-24T10:48:09.221Z,13.12
2018-01-24T10:49:19.189Z,13.03
2018-01-24T10:50:29.139Z,13.09
2018-01-24T10:51:39.140Z,13.09
2018-01-24T10:52:48.848Z,13.03
2018-01-24T10:53:58.817Z,13.03
2018-01-24T10:55:08.820Z,13.06
2018-01-24T10:56:18.767Z,13.06
2018-01-24T10:57:28.744Z,13.12
2018-01-24T10:58:38.711Z,13.28
2018-01-24T10:59:48.690Z,13.21
2018-01-24T11:00:58.404Z,13.37
2018-01-24T11:02:08.381Z,13.31
2018-01-24T11:03:18.337Z,13.13
2018-01-24T11:04:28.325Z,13.2
2018-01-24T11:05:38.048Z,13.21
2018-01-24T11:06:48.061Z,13.06
2018-01-24T11:07:57.261Z,13.03
2018-01-24T11:09:06.972Z,12.93
2018-01-24T11:10:16.698Z,12.73
2018-01-24T11:11:26.408Z,12.72
2018-01-24T11:12:36.138Z,12.69
2018-01-24T11:13:46.113Z,12.57
2018-01-24T11:14:55.835Z,12.36
2018-01-24T11:16:05.783Z,12.36
2018-01-24T11:17:15.768Z,12.32
2018-01-24T11:18:25.780Z,12.3
2018-01-24T11:19:35.729Z,12.35
2018-01-24T11:20:45.175Z,12.35
2018-01-24T11:21:55.140Z,12.25
2018-01-24T11:23:05.109Z,12.05
2018-01-24T11:24:14.821Z,11.99
2018-01-24T11:25:24.541Z,12
2018-01-24T11:26:34.497Z,11.88
2018-01-24T11:27:44.468Z,11.71
2018-01-24T11:28:54.435Z,11.63
2018-01-24T11:30:04.160Z,11.45
2018-01-24T11:31:13.853Z,11.41
2018-01-24T11:32:23.813Z,11.31
2018-01-24T11:33:33.527Z,11.18
2018-01-24T11:34:43.225Z,11.2
2018-01-24T11:35:52.925Z,11.22
2018-01-24T11:37:02.896Z,11.13
2018-01-24T11:38:12.860Z,11.18
2018-01-24T11:39:22.844Z,11.05
2018-01-24T11:40:32.556Z,11.16
2018-01-24T11:41:42.253Z,11.16
2018-01-24T11:42:51.695Z,11.22
2018-01-24T11:44:01.674Z,11.19
2018-01-24T11:45:11.661Z,11.15
2018-01-24T11:46:21.753Z,11.12
2018-01-24T11:47:31.476Z,11.08
2018-01-24T11:48:40.934Z,11.08
2018-01-24T11:49:50.906Z,11.15
2018-01-24T11:51:00.607Z,11.12
2018-01-24T11:52:10.609Z,11.12
2018-01-24T11:53:20.576Z,11.07
2018-01-24T11:54:30.312Z,11.07
2018-01-24T11:55:40.260Z,11
2018-01-24T11:56:49.975Z,10.94
2018-01-24T11:57:59.960Z,10.84
2018-01-24T11:59:09.703Z,10.86
2018-01-24T12:00:19.681Z,10.83
2018-01-24T12:01:28.858Z,10.76
2018-01-24T12:02:38.813Z,10.75
2018-01-24T12:03:48.777Z,10.8
2018-01-24T12:04:58.461Z,10.79
2018-01-24T12:06:08.169Z,10.71
2018-01-24T12:07:18.162Z,10.76
2018-01-24T12:08:27.885Z,10.77
2018-01-24T12:09:37.833Z,10.68
2018-01-24T12:10:47.793Z,10.71
2018-01-24T12:11:57.260Z,10.68
2018-01-24T12:13:07.241Z,10.77
2018-01-24T12:14:17.212Z,10.82
2018-01-24T12:15:26.670Z,10.77
2018-01-24T12:16:36.638Z,10.77
2018-01-24T12:17:46.388Z,10.8
2018-01-24T12:18:56.373Z,10.75
2018-01-24T12:20:06.331Z,10.75
2018-01-24T12:21:16.296Z,10.79
2018-01-24T12:22:25.992Z,10.82
2018-01-24T12:23:35.970Z,10.76
2018-01-24T12:24:45.944Z,10.76
2018-01-24T12:25:55.913Z,10.84
2018-01-24T12:27:05.666Z,10.82
2018-01-24T12:28:15.110Z,10.77
2018-01-24T12:29:25.065Z,10.79
2018-01-24T12:30:35.037Z,10.8
2018-01-24T12:31:45.013Z,10.86
2018-01-24T12:32:54.972Z,10.77
2018-01-24T12:34:04.670Z,10.83
2018-01-24T12:35:14.623Z,10.84
2018-01-24T12:36:24.309Z,10.89
2018-01-24T12:37:34.267Z,10.86
2018-01-24T12:38:44.229Z,10.9
2018-01-24T12:39:54.198Z,10.89
2018-01-24T12:41:04.158Z,10.95
2018-01-24T12:42:13.957Z,10.97
2018-01-24T12:43:23.948Z,10.95
2018-01-24T12:44:33.695Z,10.87
2018-01-24T12:45:43.405Z,10.94
2018-01-24T12:46:53.367Z,10.95
2018-01-24T12:48:03.323Z,11.01
2018-01-24T12:49:13.294Z,10.97
2018-01-24T12:50:23.003Z,10.9
2018-01-24T12:51:32.953Z,11
2018-01-24T12:52:42.662Z,10.9
2018-01-24T12:53:52.621Z,10.83
2018-01-24T12:55:02.348Z,10.9
2018-01-24T12:56:12.311Z,10.94
2018-01-24T12:57:22.012Z,10.92
2018-01-24T12:58:31.446Z,10.94
2018-01-24T12:59:41.404Z,10.87
2018-01-24T13:00:51.357Z,10.9
2018-01-24T13:02:01.326Z,10.94
2018-01-24T13:03:11.330Z,10.89
2018-01-24T13:04:21.288Z,10.89
2018-01-24T13:05:31.227Z,10.86
2018-01-24T13:06:41.195Z,10.83
2018-01-24T13:07:51.147Z,10.89
2018-01-24T13:09:01.121Z,10.84
2018-01-24T13:10:11.200Z,10.87
2018-01-24T13:11:21.170Z,10.84
2018-01-24T13:12:31.124Z,10.92
2018-01-24T13:13:41.075Z,10.86
2018-01-24T13:14:50.869Z,10.86
2018-01-24T13:16:00.945Z,10.89
2018-01-24T13:17:10.914Z,10.87
2018-01-24T13:18:20.869Z,10.83
2018-01-24T13:19:30.872Z,10.82
2018-01-24T13:20:40.569Z,10.87
2018-01-24T13:21:50.067Z,10.86
2018-01-24T13:23:00.038Z,10.87
2018-01-24T13:24:09.757Z,10.84
2018-01-24T13:25:19.731Z,10.87
2018-01-24T13:26:29.437Z,10.87
2018-01-24T13:27:39.151Z,10.9
2018-01-24T13:28:49.150Z,10.84
2018-01-24T13:29:58.854Z,10.95
2018-01-24T13:31:08.812Z,10.83
2018-01-24T13:32:18.772Z,10.87
2018-01-24T13:33:28.481Z,10.89
2018-01-24T13:34:38.446Z,10.9
2018-01-24T13:35:48.393Z,10.83
2018-01-24T13:36:58.161Z,10.84
2018-01-24T13:38:07.859Z,10.9
2018-01-24T13:39:17.673Z,10.87
2018-01-24T13:40:27.806Z,10.94
2018-01-24T13:41:37.781Z,10.84
2018-01-24T13:42:47.755Z,10.89
2018-01-24T13:43:57.776Z,10.94
2018-01-24T13:45:07.961Z,10.87
2018-01-24T13:46:17.933Z,10.87
2018-01-24T13:47:27.620Z,10.87
2018-01-24T13:48:37.602Z,10.87
2018-01-24T13:49:47.075Z,10.89
2018-01-24T13:50:57.046Z,10.9
2018-01-24T13:52:07.070Z,10.86
2018-01-24T13:53:17.050Z,10.92
2018-01-24T13:54:27.028Z,10.97
2018-01-24T13:55:37.187Z,10.92
2018-01-24T13:56:46.898Z,10.87
2018-01-24T13:57:56.848Z,10.86
2018-01-24T13:59:06.826Z,10.89
2018-01-24T14:00:16.793Z,10.9
2018-01-24T14:01:26.754Z,10.86
2018-01-24T14:02:36.716Z,10.89
2018-01-24T14:03:46.687Z,10.9
2018-01-24T14:04:56.401Z,10.9
2018-01-24T14:06:06.110Z,10.92
2018-01-24T14:07:15.805Z,10.94
2018-01-24T14:08:25.531Z,10.97
2018-01-24T14:09:35.480Z,10.86
2018-01-24T14:10:45.448Z,10.89
2018-01-24T14:11:55.156Z,10.9
2018-01-24T14:13:05.112Z,10.95
2018-01-24T14:14:15.070Z,10.89
2018-01-24T14:15:25.015Z,10.9
2018-01-24T14:16:34.734Z,10.84
2018-01-24T14:17:44.680Z,10.83
2018-01-24T14:18:54.656Z,10.84
2018-01-24T14:20:04.621Z,10.87
2018-01-24T14:21:14.648Z,10.87
2018-01-24T14:22:24.838Z,10.87
2018-01-24T14:23:34.602Z,10.89
2018-01-24T14:24:44.308Z,10.89
2018-01-24T14:25:54.006Z,10.84
2018-01-24T14:27:03.959Z,10.84
2018-01-24T14:28:13.924Z,10.86
2018-01-24T14:29:23.636Z,10.89
2018-01-24T14:30:33.593Z,10.86
2018-01-24T14:31:43.318Z,10.89
2018-01-24T14:32:53.017Z,10.9
2018-01-24T14:34:02.722Z,10.84
2018-01-24T14:35:12.679Z,10.83
2018-01-24T14:36:22.626Z,10.9
2018-01-24T14:37:32.568Z,10.87
2018-01-24T14:38:42.551Z,10.9
2018-01-24T14:39:52.256Z,10.95
2018-01-24T14:41:02.204Z,10.89
2018-01-24T14:42:11.905Z,10.82
2018-01-24T14:43:21.868Z,10.87
2018-01-24T14:44:31.831Z,10.9
2018-01-24T14:45:41.786Z,10.84
2018-01-24T14:46:51.745Z,10.83
2018-01-24T14:48:01.448Z,10.9
2018-01-24T14:49:11.488Z,10.9
2018-01-24T14:50:21.241Z,10.9
2018-01-24T14:51:31.204Z,10.94
2018-01-24T14:52:41.176Z,10.9
2018-01-24T14:53:51.135Z,10.87
2018-01-24T14:55:01.083Z,10.83
2018-01-24T14:56:10.780Z,10.94
2018-01-24T14:57:20.726Z,10.9
2018-01-24T14:58:30.726Z,10.82
2018-01-24T14:59:40.683Z,10.86
2018-01-24T15:00:50.380Z,10.87
2018-01-24T15:02:00.339Z,10.86
2018-01-24T15:03:10.049Z,10.87
2018-01-24T15:04:20.023Z,10.87
2018-01-24T15:05:29.971Z,10.9
2018-01-24T15:06:39.436Z,10.92
2018-01-24T15:07:49.394Z,10.9
2018-01-24T15:08:59.367Z,10.86
2018-01-24T15:10:09.073Z,10.86
2018-01-24T15:11:19.027Z,10.87
2018-01-24T15:12:28.977Z,10.83
2018-01-24T15:13:38.939Z,10.84
2018-01-24T15:14:48.890Z,10.87
2018-01-24T15:15:58.842Z,10.8
2018-01-24T15:17:08.817Z,10.9
2018-01-24T15:18:18.791Z,10.8
2018-01-24T15:19:28.758Z,10.76
2018-01-24T15:20:38.707Z,10.76
2018-01-24T15:21:48.686Z,10.79